Time;durP1;ratioP1;P1;durP2;ratioP2;P2;SDS_P1;SDS_P2;PMS_P1;PMS_P2;Temp;Humidity;BMP_temperature;BMP_pressure;BME280_temperature;BME280_humidity;BME280_pressure;Samples;Min_cycle;Max_cycle;Signal;HPM_P1;HPM_P2
2021/04/22 00:01:10;;;;;;;;;;;;;;;9.74;77.84;99445.22;5114351;28;19923;-70
2021/04/22 00:03:38;;;;;;;;;;;;;;;9.77;78.40;99446.94;5114267;28;19927;-70
2021/04/22 00:06:07;;;;;;;;;;;;;;;9.76;77.89;99448.66;5114584;28;20402;-70
2021/04/22 00:08:34;;;;;;;;;;;;;;;9.76;78.31;99447.81;5114233;28;19924;-70
2021/04/22 00:11:02;;;;;;;;;;;;;;;9.74;78.21;99452.06;5114569;28;19928;-70
2021/04/22 00:13:30;;;;;;;;;;;;;;;9.72;78.81;99451.19;5114113;28;19928;-70
2021/04/22 00:16:01;;;;;;;;;;;;;;;9.66;78.35;99441.88;5114220;28;20365;-70
2021/04/22 00:18:29;;;;;;;;;;;;;;;9.69;77.95;99441.03;5114451;28;19963;-70
2021/04/22 00:20:57;;;;;;;;;;;;;;;9.68;78.49;99436.75;5114493;28;19963;-70
2021/04/22 00:23:25;;;;;;;;;;;;;;;9.63;78.52;99435.91;5114150;28;19950;-70
2021/04/22 00:26:05;;;;;;;;;;;;;;;9.54;78.54;99436.78;5114185;28;20278;-70
2021/04/22 00:28:32;;;;;;;;;;;;;;;9.53;78.86;99429.13;5114121;28;19923;-69
2021/04/22 00:31:00;;;;;;;;;;;;;;;9.50;78.63;99430.00;5114131;28;19924;-70
2021/04/22 00:33:28;;;;;;;;;;;;;;;9.45;79.13;99427.44;5114004;28;19959;-70
2021/04/22 00:36:03;;;;;;;;;;;;;;;9.44;78.59;99422.34;5114361;28;20389;-70
2021/04/22 00:38:32;;;;;;;;;;;;;;;9.40;78.79;99429.16;5115340;28;19959;-70
2021/04/22 00:40:59;;;;;;;;;;;;;;;9.39;78.79;99426.59;5117908;28;20402;-70
2021/04/22 00:43:27;;;;;;;;;;;;;;;9.37;78.79;99434.25;5117881;28;19928;-70
2021/04/22 00:45:55;;;;;;;;;;;;;;;9.38;79.42;99430.00;5117766;28;19971;-70
2021/04/22 00:48:24;;;;;;;;;;;;;;;9.34;79.06;99436.78;5117753;28;20304;-70
2021/04/22 00:51:02;;;;;;;;;;;;;;;9.30;79.42;99440.19;5097393;28;19992;-70
2021/04/22 00:53:30;;;;;;;;;;;;;;;9.30;79.46;99441.88;5079134;28;20331;-70
2021/04/22 00:55:59;;;;;;;;;;;;;;;9.29;79.55;99441.03;5097150;28;19924;-70
2021/04/22 00:58:27;;;;;;;;;;;;;;;9.31;79.17;99438.47;5097150;28;20015;-70
2021/04/22 01:00:56;;;;;;;;;;;;;;;9.27;79.29;99442.72;5097117;28;19924;-70
2021/04/22 01:03:25;;;;;;;;;;;;;;;9.27;79.69;99437.63;5097035;28;19924;-70
2021/04/22 01:05:54;;;;;;;;;;;;;;;9.30;79.60;99437.63;5097008;28;20370;-70
2021/04/22 01:08:21;;;;;;;;;;;;;;;9.30;79.71;99437.63;5096934;28;19924;-70
2021/04/22 01:10:49;;;;;;;;;;;;;;;9.28;79.18;99439.34;5096867;28;19985;-70
2021/04/22 01:13:17;;;;;;;;;;;;;;;9.26;79.87;99435.91;5112606;28;19924;-70
2021/04/22 01:15:45;;;;;;;;;;;;;;;9.26;78.99;99433.38;5096827;28;19924;-70
2021/04/22 01:18:14;;;;;;;;;;;;;;;9.28;79.33;99434.25;5096771;28;19947;-70
2021/04/22 01:20:43;;;;;;;;;;;;;;;9.27;79.00;99431.69;5096734;28;19932;-70
2021/04/22 01:23:12;;;;;;;;;;;;;;;9.23;79.82;99435.94;5096659;28;19924;-70
2021/04/22 01:25:40;;;;;;;;;;;;;;;9.16;79.37;99443.56;5096944;28;19977;-70
2021/04/22 01:28:09;;;;;;;;;;;;;;;9.15;79.70;99437.63;5096555;28;19928;-70
2021/04/22 01:30:38;;;;;;;;;;;;;;;9.15;79.98;99442.72;5096562;28;20346;-70
2021/04/22 01:33:06;;;;;;;;;;;;;;;9.19;79.91;99448.66;5096414;28;19973;-70
2021/04/22 01:35:35;;;;;;;;;;;;;;;9.21;79.83;99446.97;5096700;28;20393;-70
2021/04/22 01:38:04;;;;;;;;;;;;;;;9.26;79.40;99445.28;5096412;28;19950;-70
2021/04/22 01:40:33;;;;;;;;;;;;;;;9.30;80.03;99446.97;5096324;28;20377;-70
2021/04/22 01:43:00;;;;;;;;;;;;;;;9.36;78.79;99439.31;5096289;28;20339;-70
2021/04/22 01:45:28;;;;;;;;;;;;;;;9.36;79.33;99437.63;5096204;28;19981;-70
2021/04/22 01:47:56;;;;;;;;;;;;;;;9.36;79.31;99427.44;5096187;28;19924;-70
2021/04/22 01:50:24;;;;;;;;;;;;;;;9.38;78.99;99433.38;5096040;28;19931;-70
2021/04/22 01:52:52;;;;;;;;;;;;;;;9.37;79.80;99426.59;5111271;28;20362;-70
2021/04/22 01:55:21;;;;;;;;;;;;;;;9.38;79.31;99419.81;5116653;28;19924;-70
2021/04/22 01:57:50;;;;;;;;;;;;;;;9.40;79.64;99416.41;5116395;28;19947;-70
2021/04/22 02:00:19;;;;;;;;;;;;;;;9.43;79.31;99413.84;5116341;28;19982;-70
2021/04/22 02:02:47;;;;;;;;;;;;;;;9.43;79.60;99418.94;5116307;28;19924;-70
2021/04/22 02:05:15;;;;;;;;;;;;;;;9.40;79.72;99418.97;5116217;28;19924;-70
2021/04/22 02:07:43;;;;;;;;;;;;;;;9.38;79.57;99420.63;5116229;28;19928;-71
2021/04/22 02:10:11;;;;;;;;;;;;;;;9.39;79.65;99422.34;5116137;28;19936;-70
2021/04/22 02:12:38;;;;;;;;;;;;;;;9.41;79.64;99422.34;5097938;28;19928;-70
2021/04/22 02:15:09;;;;;;;;;;;;;;;9.39;79.27;99421.50;5116306;28;19959;-70
2021/04/22 02:17:37;;;;;;;;;;;;;;;9.35;79.35;99418.13;5116637;28;19923;-70
2021/04/22 02:20:06;;;;;;;;;;;;;;;9.32;78.97;99415.56;5116263;28;20319;-70
2021/04/22 02:22:35;;;;;;;;;;;;;;;9.25;79.98;99406.22;5116280;28;19924;-70
2021/04/22 02:25:03;;;;;;;;;;;;;;;9.16;79.60;99413.88;5116104;28;19931;-70
2021/04/22 02:27:31;;;;;;;;;;;;;;;9.06;79.95;99411.31;5115825;28;20277;-70
2021/04/22 02:30:00;;;;;;;;;;;;;;;8.96;79.90;99410.44;5131683;27;19931;-70
2021/04/22 02:32:29;;;;;;;;;;;;;;;8.89;79.89;99418.91;5115617;28;19931;-70
2021/04/22 02:34:58;;;;;;;;;;;;;;;8.84;79.74;99415.50;5115916;28;19977;-70
2021/04/22 02:37:26;;;;;;;;;;;;;;;8.76;79.75;99409.56;5097529;28;19924;-70
2021/04/22 02:39:53;;;;;;;;;;;;;;;8.71;80.08;99412.09;5115607;28;19967;-70
2021/04/22 02:42:21;;;;;;;;;;;;;;;8.65;80.03;99409.53;5115558;28;19924;-70
2021/04/22 02:44:48;;;;;;;;;;;;;;;8.64;79.91;99407.84;5115471;28;19940;-70
2021/04/22 02:47:16;;;;;;;;;;;;;;;8.60;80.42;99410.38;5115721;28;20383;-70
2021/04/22 02:49:45;;;;;;;;;;;;;;;8.53;79.21;99418.81;5115381;28;19986;-70
2021/04/22 02:52:12;;;;;;;;;;;;;;;8.44;79.66;99418.81;5112809;28;19923;-70
2021/04/22 02:54:40;;;;;;;;;;;;;;;8.41;79.53;99429.81;5115594;28;19971;-70
2021/04/22 02:57:09;;;;;;;;;;;;;;;8.40;79.62;99419.63;5115341;28;19927;-70
2021/04/22 02:59:37;;;;;;;;;;;;;;;8.38;80.02;99434.03;5115239;28;19923;-70
2021/04/22 03:02:05;;;;;;;;;;;;;;;8.37;80.22;99437.44;5114943;28;19924;-70
2021/04/22 03:04:32;;;;;;;;;;;;;;;8.42;80.08;99440.84;5115447;28;19930;-70
2021/04/22 03:07:01;;;;;;;;;;;;;;;8.46;79.59;99442.53;5115009;28;19963;-70
2021/04/22 03:09:29;;;;;;;;;;;;;;;8.47;80.27;99441.72;5115031;28;19969;-70
2021/04/22 03:11:57;;;;;;;;;;;;;;;8.46;79.83;99440.00;5114994;28;20360;-70
2021/04/22 03:14:25;;;;;;;;;;;;;;;8.42;80.31;99435.75;5115275;28;19923;-70
2021/04/22 03:16:52;;;;;;;;;;;;;;;8.35;79.87;99445.03;5114833;28;19930;-70
2021/04/22 03:19:20;;;;;;;;;;;;;;;8.29;79.75;99439.94;5114892;28;19924;-70
2021/04/22 03:21:48;;;;;;;;;;;;;;;8.27;79.89;99433.13;5114792;28;19955;-70
2021/04/22 03:24:16;;;;;;;;;;;;;;;8.28;79.83;99432.31;5114755;28;20426;-70
2021/04/22 03:26:44;;;;;;;;;;;;;;;8.23;80.38;99423.78;5114753;28;19924;-70
2021/04/22 03:29:11;;;;;;;;;;;;;;;8.19;80.27;99422.03;5115039;28;19952;-70
2021/04/22 03:31:39;;;;;;;;;;;;;;;8.17;79.82;99428.81;5114713;28;20452;-70
2021/04/22 03:34:07;;;;;;;;;;;;;;;8.18;80.14;99428.00;5114867;28;19977;-70
2021/04/22 03:36:34;;;;;;;;;;;;;;;8.21;79.87;99421.22;5114580;28;19924;-70
2021/04/22 03:39:02;;;;;;;;;;;;;;;8.19;80.68;99419.50;5114572;28;19923;-70
2021/04/22 03:41:30;;;;;;;;;;;;;;;8.19;79.96;99427.13;5114565;28;20417;-70
2021/04/22 03:43:58;;;;;;;;;;;;;;;8.19;80.75;99432.22;5114737;28;19981;-70
2021/04/22 03:46:26;;;;;;;;;;;;;;;8.18;80.60;99433.06;5113534;28;19950;-70
2021/04/22 03:48:53;;;;;;;;;;;;;;;8.15;80.82;99430.50;5114381;28;19930;-70
2021/04/22 03:51:21;;;;;;;;;;;;;;;8.06;80.57;99442.31;5114645;28;19924;-71
2021/04/22 03:53:48;;;;;;;;;;;;;;;8.00;80.43;99451.59;5134889;28;19928;-70
2021/04/22 03:56:16;;;;;;;;;;;;;;;7.86;80.89;99443.91;5134911;28;20457;-70
2021/04/22 03:58:44;;;;;;;;;;;;;;;7.81;81.19;99443.03;5134804;28;19923;-70
2021/04/22 04:01:13;;;;;;;;;;;;;;;7.78;80.58;99445.53;5134865;28;19923;-70
2021/04/22 04:03:40;;;;;;;;;;;;;;;7.70;81.17;99442.09;5134897;28;19923;-70
2021/04/22 04:06:08;;;;;;;;;;;;;;;7.62;81.54;99448.81;5134859;28;19967;-70
2021/04/22 04:08:36;;;;;;;;;;;;;;;7.58;81.44;99447.13;5134770;28;19930;-70
2021/04/22 04:11:03;;;;;;;;;;;;;;;7.51;81.13;99459.75;5134809;28;19924;-70
2021/04/22 04:13:31;;;;;;;;;;;;;;;7.41;81.15;99464.72;5136130;27;19923;-70
2021/04/22 04:15:59;;;;;;;;;;;;;;;7.31;81.18;99462.13;5138902;27;19972;-70
2021/04/22 04:18:27;;;;;;;;;;;;;;;7.28;81.43;99468.00;5120840;27;19923;-70
2021/04/22 04:20:55;;;;;;;;;;;;;;;7.32;81.22;99463.78;5138886;27;19931;-70
2021/04/22 04:23:25;;;;;;;;;;;;;;;7.38;81.79;99468.94;5138793;27;20417;-70
2021/04/22 04:25:52;;;;;;;;;;;;;;;7.34;80.94;99477.38;5138780;27;20054;-70
2021/04/22 04:28:20;;;;;;;;;;;;;;;7.28;81.97;99482.38;5138646;27;20322;-70
2021/04/22 04:30:48;;;;;;;;;;;;;;;7.25;81.54;99479.81;5138692;27;20417;-70
2021/04/22 04:33:16;;;;;;;;;;;;;;;7.26;81.11;99479.00;5138549;27;19931;-70
2021/04/22 04:35:44;;;;;;;;;;;;;;;7.30;81.56;99490.84;5138509;27;19976;-70
2021/04/22 04:38:12;;;;;;;;;;;;;;;7.33;81.17;99480.75;5138470;27;19968;-70
2021/04/22 04:40:40;;;;;;;;;;;;;;;7.40;81.26;99490.97;5138438;27;20315;-70
2021/04/22 04:43:08;;;;;;;;;;;;;;;7.51;81.17;99485.97;5138442;27;19923;-70
2021/04/22 04:45:36;;;;;;;;;;;;;;;7.60;81.70;99480.97;5138342;27;19927;-70
2021/04/22 04:48:04;;;;;;;;;;;;;;;7.67;81.82;99472.56;5138326;27;19923;-70
2021/04/22 04:50:33;;;;;;;;;;;;;;;7.70;81.51;99477.66;5138198;27;19974;-70
2021/04/22 04:53:01;;;;;;;;;;;;;;;7.75;81.76;99478.53;5137898;27;19931;-70
2021/04/22 04:55:28;;;;;;;;;;;;;;;7.78;81.55;99476.03;5138417;27;20403;-70
2021/04/22 04:57:56;;;;;;;;;;;;;;;7.92;81.53;99474.44;5120132;27;19928;-70
2021/04/22 05:00:24;;;;;;;;;;;;;;;8.02;81.56;99481.28;5138024;27;20010;-70
2021/04/22 05:02:52;;;;;;;;;;;;;;;8.13;81.54;99478.81;5138018;27;20026;-70
2021/04/22 05:05:20;;;;;;;;;;;;;;;8.32;81.50;99479.78;5138249;27;20357;-70
2021/04/22 05:07:49;;;;;;;;;;;;;;;8.49;81.29;99483.25;5137953;27;19931;-70
2021/04/22 05:10:17;;;;;;;;;;;;;;;8.68;81.87;99490.13;5138147;27;19984;-70
2021/04/22 05:12:45;;;;;;;;;;;;;;;8.80;81.75;99486.75;5137723;27;19945;-70
2021/04/22 05:15:14;;;;;;;;;;;;;;;8.97;81.86;99492.75;5137604;27;20293;-70
2021/04/22 05:17:42;;;;;;;;;;;;;;;9.10;81.29;99485.13;5137742;27;19924;-70
2021/04/22 05:20:10;;;;;;;;;;;;;;;9.24;81.52;99485.16;5137637;27;20070;-71
2021/04/22 05:22:38;;;;;;;;;;;;;;;9.42;81.23;99488.59;5137374;27;19924;-71
2021/04/22 05:25:07;;;;;;;;;;;;;;;9.61;80.98;99498.75;5137000;27;20297;-71
2021/04/22 05:27:35;;;;;;;;;;;;;;;9.76;81.11;99493.69;5137367;27;19927;-71
2021/04/22 05:30:03;;;;;;;;;;;;;;;9.86;80.76;99501.28;5137373;27;19924;-71
2021/04/22 05:32:32;;;;;;;;;;;;;;;10.00;81.13;99498.75;5137596;27;19924;-71
2021/04/22 05:35:00;;;;;;;;;;;;;;;10.12;80.93;99495.34;5137376;27;19923;-71
2021/04/22 05:37:47;;;;;;;;;;;;;;;10.21;80.54;99506.38;5137674;27;19931;-71
2021/04/22 05:40:17;;;;;;;;;;;;;;;10.27;80.51;99503.00;5137180;27;19923;-71
2021/04/22 05:42:45;;;;;;;;;;;;;;;10.35;79.93;99509.75;5137243;27;19927;-71
2021/04/22 05:45:14;;;;;;;;;;;;;;;10.48;79.47;99508.88;5137451;27;19923;-71
2021/04/22 05:47:41;;;;;;;;;;;;;;;10.62;79.69;99514.78;5137109;27;19946;-71
2021/04/22 05:50:09;;;;;;;;;;;;;;;10.80;78.67;99505.34;5137061;27;19927;-71
2021/04/22 05:52:37;;;;;;;;;;;;;;;10.99;78.50;99506.97;5136683;27;19924;-71
2021/04/22 05:55:06;;;;;;;;;;;;;;;11.11;78.71;99505.16;5137016;27;19952;-71
2021/04/22 05:57:34;;;;;;;;;;;;;;;11.18;78.28;99511.09;5137162;27;20334;-71
2021/04/22 06:00:03;;;;;;;;;;;;;;;11.29;78.10;99517.00;5136831;27;19923;-71
2021/04/22 06:02:32;;;;;;;;;;;;;;;11.40;77.84;99522.88;5136854;27;19930;-71
2021/04/22 06:05:00;;;;;;;;;;;;;;;11.44;77.62;99514.34;5137064;27;19984;-70
2021/04/22 06:07:27;;;;;;;;;;;;;;;11.47;77.28;99496.41;5136732;27;20296;-70
2021/04/22 06:09:55;;;;;;;;;;;;;;;11.44;76.80;99496.44;5136678;27;19930;-70
2021/04/22 06:12:23;;;;;;;;;;;;;;;11.39;76.90;99498.19;5136607;27;19923;-70
2021/04/22 06:14:51;;;;;;;;;;;;;;;11.44;76.94;99506.69;5136471;27;19923;-70
2021/04/22 06:17:19;;;;;;;;;;;;;;;11.51;76.78;99503.22;5136501;27;19959;-69
2021/04/22 06:19:47;;;;;;;;;;;;;;;11.65;76.69;99509.06;5136491;27;20373;-71
2021/04/22 06:22:15;;;;;;;;;;;;;;;11.71;76.34;99515.88;5136387;27;20371;-70
2021/04/22 06:24:42;;;;;;;;;;;;;;;11.78;75.99;99504.75;5118092;27;20419;-70
2021/04/22 06:27:11;;;;;;;;;;;;;;;11.83;75.64;99491.03;5136630;27;19965;-70
2021/04/22 06:29:39;;;;;;;;;;;;;;;11.90;75.27;99504.63;5136478;27;20269;-70
2021/04/22 06:32:08;;;;;;;;;;;;;;;11.89;75.33;99506.34;5136443;27;19927;-71
2021/04/22 06:34:36;;;;;;;;;;;;;;;11.90;75.44;99513.13;5136157;27;19924;-71
2021/04/22 06:37:04;;;;;;;;;;;;;;;12.01;75.41;99521.56;5135145;27;20384;-71
2021/04/22 06:39:32;;;;;;;;;;;;;;;12.12;75.48;99530.88;5136050;27;20022;-71
2021/04/22 06:41:59;;;;;;;;;;;;;;;12.11;75.32;99527.44;5136069;27;19958;-70
2021/04/22 06:44:27;;;;;;;;;;;;;;;12.13;75.29;99524.88;5117636;27;20030;-70
2021/04/22 06:46:55;;;;;;;;;;;;;;;12.26;75.14;99532.41;5136156;27;19932;-71
2021/04/22 06:49:24;;;;;;;;;;;;;;;12.46;75.20;99529.63;5117823;27;19923;-70
2021/04/22 06:51:52;;;;;;;;;;;;;;;12.70;75.30;99524.25;5135612;27;19927;-71
2021/04/22 06:54:20;;;;;;;;;;;;;;;12.64;74.47;99532.00;5135794;27;20019;-70
2021/04/22 06:56:48;;;;;;;;;;;;;;;12.59;74.65;99526.09;5135700;27;19923;-71
2021/04/22 06:59:16;;;;;;;;;;;;;;;12.63;74.62;99532.88;5135793;27;19923;-71
2021/04/22 07:01:44;;;;;;;;;;;;;;;12.70;74.18;99537.06;5136297;27;19927;-70
2021/04/22 07:04:12;;;;;;;;;;;;;;;12.88;73.93;99534.28;5135572;27;19923;-71
2021/04/22 07:06:40;;;;;;;;;;;;;;;13.08;73.85;99532.31;5135393;27;19967;-71
2021/04/22 07:09:08;;;;;;;;;;;;;;;13.23;73.83;99536.41;5135533;27;19924;-71
2021/04/22 07:11:35;;;;;;;;;;;;;;;13.25;73.16;99537.22;5135443;27;19924;-71
2021/04/22 07:14:04;;;;;;;;;;;;;;;13.26;72.42;99539.78;5135354;27;19923;-70
2021/04/22 07:16:32;;;;;;;;;;;;;;;13.24;71.88;99538.97;5135443;27;19968;-70
2021/04/22 07:18:59;;;;;;;;;;;;;;;13.22;70.71;99538.13;5135592;27;19956;-71
2021/04/22 07:21:27;;;;;;;;;;;;;;;13.20;70.01;99534.72;5135307;27;19923;-70
2021/04/22 07:23:56;;;;;;;;;;;;;;;13.38;69.93;99536.19;5135354;27;19927;-71
2021/04/22 07:26:23;;;;;;;;;;;;;;;13.58;69.44;99530.78;5135286;27;19924;-70
2021/04/22 07:28:51;;;;;;;;;;;;;;;13.71;69.02;99534.84;5135121;27;19928;-70
2021/04/22 07:31:20;;;;;;;;;;;;;;;13.82;68.54;99548.34;5134947;27;19924;-70
2021/04/22 07:33:48;;;;;;;;;;;;;;;13.91;68.22;99548.19;5134497;27;19947;-71
2021/04/22 07:36:17;;;;;;;;;;;;;;;14.04;67.23;99545.41;5135156;27;19923;-71
2021/04/22 07:38:45;;;;;;;;;;;;;;;14.02;67.23;99546.28;5135429;27;19931;-73
2021/04/22 07:41:14;;;;;;;;;;;;;;;14.12;67.10;99542.69;5134995;27;19976;-73
2021/04/22 07:43:42;;;;;;;;;;;;;;;14.19;66.54;99539.16;5116984;27;19970;-73
2021/04/22 07:46:09;;;;;;;;;;;;;;;14.18;65.73;99542.59;5134852;27;19928;-73
2021/04/22 07:48:37;;;;;;;;;;;;;;;14.19;65.70;99541.72;5134743;27;20027;-73
2021/04/22 07:51:05;;;;;;;;;;;;;;;14.25;65.62;99548.47;5134842;27;19962;-73
2021/04/22 07:53:34;;;;;;;;;;;;;;;14.36;64.78;99552.56;5116268;28;19951;-73
2021/04/22 07:56:02;;;;;;;;;;;;;;;14.55;65.20;99547.94;5135606;28;20307;-73
2021/04/22 07:58:31;;;;;;;;;;;;;;;14.68;65.22;99552.81;5134507;28;19927;-73
2021/04/22 08:00:59;;;;;;;;;;;;;;;14.88;64.91;99546.41;5134809;28;19934;-73
2021/04/22 08:03:28;;;;;;;;;;;;;;;15.01;63.42;99527.31;5134747;28;19930;-73
2021/04/22 08:05:56;;;;;;;;;;;;;;;15.15;62.08;99536.44;5134676;28;19923;-74
2021/04/22 08:08:27;;;;;;;;;;;;;;;15.31;61.04;99535.22;5116737;28;19923;-73
2021/04/22 08:10:56;;;;;;;;;;;;;;;15.33;60.37;99540.34;5134719;28;19923;-73
2021/04/22 08:13:24;;;;;;;;;;;;;;;15.26;59.68;99531.06;5134692;28;19931;-73
2021/04/22 08:15:54;;;;;;;;;;;;;;;15.10;59.46;99542.53;5134661;28;20023;-73
2021/04/22 08:18:23;;;;;;;;;;;;;;;15.01;59.71;99532.47;5116303;28;19923;-73
2021/04/22 08:20:52;;;;;;;;;;;;;;;15.09;60.35;99525.44;5134650;28;19923;-72
2021/04/22 08:23:20;;;;;;;;;;;;;;;15.16;60.71;99527.00;5134535;28;20439;-72
2021/04/22 08:25:49;;;;;;;;;;;;;;;15.19;60.53;99526.91;5134207;28;19949;-73
2021/04/22 08:28:18;;;;;;;;;;;;;;;15.20;60.28;99533.75;5134393;28;19966;-74
2021/04/22 08:30:48;;;;;;;;;;;;;;;15.24;60.44;99536.22;5134329;28;19923;-73
2021/04/22 08:33:17;;;;;;;;;;;;;;;15.32;60.59;99536.06;5134075;28;19923;-73
2021/04/22 08:35:45;;;;;;;;;;;;;;;15.32;60.36;99538.63;5134465;28;19928;-73
2021/04/22 08:38:13;;;;;;;;;;;;;;;15.36;60.10;99541.09;5134823;28;19923;-73
2021/04/22 08:40:41;;;;;;;;;;;;;;;15.28;58.79;99544.72;5134703;28;19996;-72
2021/04/22 08:43:09;;;;;;;;;;;;;;;15.22;58.34;99548.28;5116143;28;19927;-73
2021/04/22 08:45:37;;;;;;;;;;;;;;;15.20;58.17;99556.91;5134383;28;20380;-73
2021/04/22 08:48:07;;;;;;;;;;;;;;;15.20;57.58;99549.19;5116372;28;20422;-73
2021/04/22 08:50:36;;;;;;;;;;;;;;;15.19;57.58;99552.63;5134306;28;20326;-73
2021/04/22 08:53:04;;;;;;;;;;;;;;;15.20;57.70;99559.47;5133984;28;20292;-73
2021/04/22 08:55:33;;;;;;;;;;;;;;;15.21;58.07;99561.16;5134132;28;20010;-73
2021/04/22 08:58:03;;;;;;;;;;;;;;;15.17;58.21;99552.66;5134261;28;20019;-73
2021/04/22 09:00:32;;;;;;;;;;;;;;;15.13;58.25;99557.91;5137137;27;19923;-73
2021/04/22 09:03:00;;;;;;;;;;;;;;;15.04;58.30;99563.25;5119787;27;19961;-73
2021/04/22 09:05:28;;;;;;;;;;;;;;;15.03;58.53;99576.97;5138233;27;19945;-72
2021/04/22 09:07:57;;;;;;;;;;;;;;;15.04;58.71;99573.53;5138168;27;20331;-72
2021/04/22 09:10:25;;;;;;;;;;;;;;;15.04;58.99;99578.66;5137572;27;19923;-72
2021/04/22 09:13:00;;;;;;;;;;;;;;;15.06;59.04;99571.75;5138052;27;19931;-72
2021/04/22 09:15:29;;;;;;;;;;;;;;;15.11;58.93;99564.81;5137810;27;19923;-72
2021/04/22 09:17:58;;;;;;;;;;;;;;;15.10;57.57;99560.53;5138006;27;20274;-72
2021/04/22 09:20:28;;;;;;;;;;;;;;;15.17;54.59;99550.09;5137916;27;19924;-72
2021/04/22 09:22:55;;;;;;;;;;;;;;;15.44;51.04;99548.66;5137624;27;20430;-72
2021/04/22 09:25:25;;;;;;;;;;;;;;;15.54;49.15;99546.75;5137512;27;19924;-73
2021/04/22 09:28:02;;;;;;;;;;;;;;;15.77;49.07;99557.34;5137449;27;19924;-73
2021/04/22 09:30:33;;;;;;;;;;;;;;;16.07;50.10;99557.47;5119278;27;20376;-72
2021/04/22 09:33:00;;;;;;;;;;;;;;;16.37;51.38;99554.97;5118936;27;19923;-71
2021/04/22 09:35:28;;;;;;;;;;;;;;;16.46;51.31;99557.31;5137106;27;19923;-70
2021/04/22 09:37:56;;;;;;;;;;;;;;;16.72;51.99;99552.34;5137311;27;19927;-71
2021/04/22 09:40:27;;;;;;;;;;;;;;;16.95;51.62;99555.09;5137231;27;19927;-72
2021/04/22 09:42:55;;;;;;;;;;;;;;;17.18;51.11;99557.03;5137247;27;19935;-72
2021/04/22 09:45:25;;;;;;;;;;;;;;;17.30;49.89;99556.63;5137037;27;20376;-72
2021/04/22 09:48:16;;;;;;;;;;;;;;;17.47;48.49;99553.56;5136945;27;19923;-71
2021/04/22 09:50:45;;;;;;;;;;;;;;;17.57;47.44;99549.81;5137349;27;20284;-71
2021/04/22 09:53:14;;;;;;;;;;;;;;;17.71;47.87;99552.81;5136775;27;19924;-71
2021/04/22 09:55:44;;;;;;;;;;;;;;;17.75;47.59;99546.69;5136974;27;19924;-71
2021/04/22 09:58:12;;;;;;;;;;;;;;;17.74;47.16;99551.00;5136937;27;20372;-70
2021/04/22 10:00:40;;;;;;;;;;;;;;;17.52;46.47;99541.38;5136856;27;19978;-73
2021/04/22 10:03:10;;;;;;;;;;;;;;;17.36;46.35;99541.00;5136730;27;19930;-71
2021/04/22 10:05:38;;;;;;;;;;;;;;;17.26;47.00;99542.16;5136750;27;19924;-72
2021/04/22 10:08:07;;;;;;;;;;;;;;;17.30;47.10;99531.69;5136707;27;19927;-71
2021/04/22 10:10:35;;;;;;;;;;;;;;;17.36;47.46;99541.00;5136715;27;20360;-71
2021/04/22 10:13:06;;;;;;;;;;;;;;;17.48;47.86;99539.75;5136604;27;19930;-71
2021/04/22 10:15:34;;;;;;;;;;;;;;;17.57;47.81;99536.94;5136225;27;19923;-71
2021/04/22 10:18:02;;;;;;;;;;;;;;;17.63;47.49;99539.34;5136885;27;19972;-72
2021/04/22 10:20:32;;;;;;;;;;;;;;;17.53;45.69;99532.75;5137359;27;19931;-74
2021/04/22 10:23:04;;;;;;;;;;;;;;;17.42;44.74;99541.63;5136485;27;19924;-73
2021/04/22 10:25:33;;;;;;;;;;;;;;;17.39;45.08;99536.59;5136406;27;19923;-71
2021/04/22 10:28:06;;;;;;;;;;;;;;;17.21;45.34;99537.13;5136331;27;20382;-72
2021/04/22 10:30:35;;;;;;;;;;;;;;;17.07;45.93;99539.28;5136384;27;19923;-73
2021/04/22 10:33:03;;;;;;;;;;;;;;;16.91;46.20;99545.78;5136018;27;19931;-72
2021/04/22 10:35:32;;;;;;;;;;;;;;;16.75;47.27;99557.38;5136117;27;19927;-72
2021/04/22 10:38:01;;;;;;;;;;;;;;;16.74;48.31;99560.88;5136083;27;19927;-71
2021/04/22 10:40:30;;;;;;;;;;;;;;;16.55;48.93;99565.69;5136072;27;19976;-72
2021/04/22 10:42:59;;;;;;;;;;;;;;;16.43;49.54;99565.13;5136110;27;19923;-72
2021/04/22 10:45:31;;;;;;;;;;;;;;;16.25;49.99;99563.00;5136303;27;19930;-72
2021/04/22 10:48:05;;;;;;;;;;;;;;;16.07;50.28;99570.34;5136096;27;20418;-72
2021/04/22 10:50:35;;;;;;;;;;;;;;;15.96;50.70;99577.47;5135890;27;19923;-71
2021/04/22 10:53:06;;;;;;;;;;;;;;;15.88;50.82;99587.06;5135166;27;20010;-72
2021/04/22 10:55:35;;;;;;;;;;;;;;;15.76;50.69;99592.53;5135245;27;19927;-68
2021/04/22 10:58:13;;;;;;;;;;;;;;;15.37;50.63;99588.25;5135546;27;19924;-70
2021/04/22 11:00:46;;;;;;;;;;;;;;;15.18;50.96;99597.22;5135727;27;20378;-70
2021/04/22 11:03:23;;;;;;;;;;;;;;;15.14;51.58;99603.31;5135873;27;19923;-72
2021/04/22 11:05:54;;;;;;;;;;;;;;;15.10;51.30;99609.38;5135424;27;19924;-71
2021/04/22 11:08:30;;;;;;;;;;;;;;;15.10;51.86;99606.81;5135568;27;20026;-71
2021/04/22 11:10:58;;;;;;;;;;;;;;;15.11;51.68;99618.78;5135479;27;19973;-71
2021/04/22 11:13:29;;;;;;;;;;;;;;;15.16;51.99;99624.69;5117084;27;19930;-72
2021/04/22 11:16:04;;;;;;;;;;;;;;;15.10;51.28;99643.66;5135453;27;20323;-71
2021/04/22 11:18:40;;;;;;;;;;;;;;;15.03;51.42;99654.06;5135429;27;20373;-71
2021/04/22 11:21:22;;;;;;;;;;;;;;;15.09;51.03;99659.94;5117087;27;20246;-72
2021/04/22 11:23:50;;;;;;;;;;;;;;;15.21;51.69;99669.97;5135359;27;20017;-71
2021/04/22 11:26:22;;;;;;;;;;;;;;;15.24;51.38;99674.22;5117181;27;19963;-72
2021/04/22 11:28:51;;;;;;;;;;;;;;;14.96;50.97;99683.34;5135241;27;19944;-72
2021/04/22 11:31:20;;;;;;;;;;;;;;;14.80;50.50;99682.78;5116971;27;19923;-72
2021/04/22 11:34:03;;;;;;;;;;;;;;;14.79;50.39;99681.06;5135143;27;19923;-71
2021/04/22 11:36:31;;;;;;;;;;;;;;;14.86;50.24;99692.09;5135183;27;19976;-72
2021/04/22 11:39:00;;;;;;;;;;;;;;;14.86;50.47;99692.09;5116584;28;19968;-74
2021/04/22 11:41:31;;;;;;;;;;;;;;;14.82;51.13;99701.59;5117126;27;20391;-72
2021/04/22 11:44:03;;;;;;;;;;;;;;;14.65;50.50;99704.44;5116553;28;19923;-73
2021/04/22 11:46:40;;;;;;;;;;;;;;;14.35;50.62;99706.66;5135271;27;20365;-73
2021/04/22 11:49:08;;;;;;;;;;;;;;;14.12;51.77;99701.84;5135133;27;19923;-73
2021/04/22 11:51:37;;;;;;;;;;;;;;;13.83;52.18;99706.53;5116708;27;19923;-72
2021/04/22 11:54:16;;;;;;;;;;;;;;;13.56;53.20;99700.03;5116731;28;19927;-71
2021/04/22 11:56:46;;;;;;;;;;;;;;;13.38;53.76;99692.56;5134980;28;19947;-73
2021/04/22 11:59:17;;;;;;;;;;;;;;;13.26;54.12;99680.75;5134922;28;19927;-72
2021/04/22 12:01:52;;;;;;;;;;;;;;;13.15;54.54;99677.44;5134914;28;19923;-72
2021/04/22 12:04:20;;;;;;;;;;;;;;;13.11;54.88;99688.59;5134842;28;19933;-72
2021/04/22 12:06:52;;;;;;;;;;;;;;;13.09;55.93;99694.59;5134785;28;19924;-71
2021/04/22 12:09:26;;;;;;;;;;;;;;;13.06;56.20;99698.06;5134646;28;20274;-72
2021/04/22 12:11:54;;;;;;;;;;;;;;;12.99;56.04;99678.47;5134625;28;19930;-73
2021/04/22 12:14:30;;;;;;;;;;;;;;;12.93;55.78;99691.34;5134516;28;20010;-72
2021/04/22 12:16:58;;;;;;;;;;;;;;;12.85;56.14;99700.81;5134974;28;20262;-73
2021/04/22 12:19:27;;;;;;;;;;;;;;;12.85;56.14;99688.00;5134584;28;19924;-74
2021/04/22 12:21:55;;;;;;;;;;;;;;;12.87;56.56;99685.41;5134661;28;20025;-73
2021/04/22 12:24:23;;;;;;;;;;;;;;;12.84;56.55;99680.34;5134623;28;19923;-73
2021/04/22 12:26:51;;;;;;;;;;;;;;;12.80;56.63;99671.81;5134571;28;19923;-72
2021/04/22 12:29:20;;;;;;;;;;;;;;;12.76;56.59;99673.56;5134578;28;19930;-73
2021/04/22 12:31:49;;;;;;;;;;;;;;;12.79;56.61;99672.66;5134506;28;19931;-73
2021/04/22 12:34:19;;;;;;;;;;;;;;;12.79;56.80;99657.31;5135359;27;19930;-73
2021/04/22 12:36:54;;;;;;;;;;;;;;;12.80;57.07;99671.81;5138515;27;19923;-73
2021/04/22 12:39:25;;;;;;;;;;;;;;;12.82;56.98;99664.97;5138440;27;19924;-73
2021/04/22 12:42:03;;;;;;;;;;;;;;;12.87;57.27;99665.78;5138480;27;19923;-73
2021/04/22 12:44:32;;;;;;;;;;;;;;;12.92;57.27;99669.13;5138237;27;19929;-72
2021/04/22 12:47:03;;;;;;;;;;;;;;;12.90;57.42;99664.91;5138535;27;19969;-73
2021/04/22 12:49:33;;;;;;;;;;;;;;;13.02;57.64;99654.53;5138404;27;20010;-73
2021/04/22 12:52:01;;;;;;;;;;;;;;;13.14;57.66;99649.28;5137940;27;19927;-74
2021/04/22 12:54:29;;;;;;;;;;;;;;;13.21;57.32;99646.63;5138281;27;19924;-74
2021/04/22 12:56:57;;;;;;;;;;;;;;;13.20;56.80;99639.81;5138751;27;19923;-73
2021/04/22 12:59:25;;;;;;;;;;;;;;;13.21;56.93;99636.38;5137970;27;20376;-74